PWSweather.com
Personal Weather Stations
Station Observations
PIOMBINO2
PiombinoIT

PiombinoIT

Lat: 42.9358, Lon: 10.5231

Elevation: 124

Station Type: Davis Vantage Pro 2

http://piombinometeo.it

Latest ConditionsUpdated 10:00:01 AM GMT+01:01 Friday, Feb 22, 2019
Currently Today's Max Today's Min Today's Average
Temperature 54.7°F12.6°C 54.7°F12.6°C 53.2°F11.8°C 53.9°F12.2°C
Dew Point 47.6°F8.7°C 48.1°F8.9°C 44.8°F7.1°C 46.8°F8.2°C
Winds 6.0 mph WNW9.7 kmh WNW 8.0 mph -12.9 kmh - - 6.6 mph 10.6 kmh
Wind Gusts 13.0 mph20.9 kmh 19.0 mph30.6 kmh - -
Humidity 77% 80% 71% 77%
Pressure 30.25 in1024.4 mb 30.33 in1027.1 mb 30.25 in1024.4 mb -
Hour Temp Dew Point Humidity Winds Wind Gusts Pressure Precip Precip Rate Daily Precip Total
10:00 AM 54.7°F12.6°C 47.6°F8.7°C 77% 6.0 mph WNW9.7 kmh WNW 13.0 mph20.9 kmh 30.25 in1024.4 mb 0.00 in0.0 mm 0.00 in0.0 mm 0.00 in0.0 mm
09:45 AM 54.7°F12.6°C 48.0°F8.9°C 78% 7.0 mph WNW11.3 kmh WNW 16.0 mph25.7 kmh 30.26 in1024.7 mb 0.00 in0.0 mm 0.00 in0.0 mm 0.00 in0.0 mm
09:30 AM 54.7°F12.6°C 47.6°F8.7°C 77% 6.0 mph WNW9.7 kmh WNW 16.0 mph25.7 kmh 30.26 in1024.7 mb 0.00 in0.0 mm 0.00 in0.0 mm 0.00 in0.0 mm
09:15 AM 54.7°F12.6°C 47.6°F8.7°C 77% 7.0 mph WNW11.3 kmh WNW 14.0 mph22.5 kmh 30.26 in1024.7 mb 0.00 in0.0 mm 0.00 in0.0 mm 0.00 in0.0 mm
09:00 AM 54.3°F12.4°C 47.6°F8.7°C 78% 7.0 mph WNW11.3 kmh WNW 16.0 mph25.7 kmh 30.25 in1024.4 mb 0.00 in0.0 mm 0.00 in0.0 mm 0.00 in0.0 mm
08:45 AM 54.3°F12.4°C 47.9°F8.8°C 79% 8.0 mph WNW12.9 kmh WNW 16.0 mph25.7 kmh 30.25 in1024.4 mb 0.00 in0.0 mm 0.00 in0.0 mm 0.00 in0.0 mm
08:30 AM 54.3°F12.4°C 47.6°F8.7°C 78% 8.0 mph WNW12.9 kmh WNW 16.0 mph25.7 kmh 30.26 in1024.7 mb 0.00 in0.0 mm 0.00 in0.0 mm 0.00 in0.0 mm
08:15 AM 54.1°F12.3°C 47.8°F8.8°C 79% 7.0 mph WNW11.3 kmh WNW 16.0 mph25.7 kmh 30.26 in1024.7 mb 0.00 in0.0 mm 0.00 in0.0 mm 0.00 in0.0 mm
08:00 AM 54.1°F12.3°C 48.1°F8.9°C 80% 7.0 mph WNW11.3 kmh WNW 15.0 mph24.1 kmh 30.25 in1024.4 mb 0.00 in0.0 mm 0.00 in0.0 mm 0.00 in0.0 mm
07:45 AM 54.1°F12.3°C 47.8°F8.8°C 79% 8.0 mph WNW12.9 kmh WNW 17.0 mph27.4 kmh 30.25 in1024.4 mb 0.00 in0.0 mm 0.00 in0.0 mm 0.00 in0.0 mm
07:30 AM 54.3°F12.4°C 47.9°F8.8°C 79% 6.0 mph WNW9.7 kmh WNW 13.0 mph20.9 kmh 30.25 in1024.4 mb 0.00 in0.0 mm 0.00 in0.0 mm 0.00 in0.0 mm
07:15 AM 54.3°F12.4°C 46.9°F8.3°C 76% 7.0 mph NW11.3 kmh NW 14.0 mph22.5 kmh 30.25 in1024.4 mb 0.00 in0.0 mm 0.00 in0.0 mm 0.00 in0.0 mm
07:00 AM 54.3°F12.4°C 46.6°F8.1°C 75% 7.0 mph NW11.3 kmh NW 16.0 mph25.7 kmh 30.25 in1024.4 mb 0.00 in0.0 mm 0.00 in0.0 mm 0.00 in0.0 mm
06:45 AM 54.1°F12.3°C 45.7°F7.6°C 73% 6.0 mph NW9.7 kmh NW 13.0 mph20.9 kmh 30.25 in1024.4 mb 0.00 in0.0 mm 0.00 in0.0 mm 0.00 in0.0 mm
06:30 AM 54.1°F12.3°C 44.9°F7.2°C 71% 7.0 mph NW11.3 kmh NW 14.0 mph22.5 kmh 30.25 in1024.4 mb 0.00 in0.0 mm 0.00 in0.0 mm 0.00 in0.0 mm
06:15 AM 54.0°F12.2°C 44.8°F7.1°C 71% 7.0 mph NW11.3 kmh NW 12.0 mph19.3 kmh 30.25 in1024.4 mb 0.00 in0.0 mm 0.00 in0.0 mm 0.00 in0.0 mm
06:00 AM 54.1°F12.3°C 45.3°F7.4°C 72% 6.0 mph NW9.7 kmh NW 14.0 mph22.5 kmh 30.26 in1024.7 mb 0.00 in0.0 mm 0.00 in0.0 mm 0.00 in0.0 mm
05:45 AM 54.1°F12.3°C 45.7°F7.6°C 73% 6.0 mph WNW9.7 kmh WNW 14.0 mph22.5 kmh 30.25 in1024.4 mb 0.00 in0.0 mm 0.00 in0.0 mm 0.00 in0.0 mm
05:30 AM 54.1°F12.3°C 45.7°F7.6°C 73% 7.0 mph NW11.3 kmh NW 13.0 mph20.9 kmh 30.26 in1024.7 mb 0.00 in0.0 mm 0.00 in0.0 mm 0.00 in0.0 mm
05:15 AM 54.1°F12.3°C 46.7°F8.2°C 76% 6.0 mph WNW9.7 kmh WNW 19.0 mph30.6 kmh 30.26 in1024.7 mb 0.00 in0.0 mm 0.00 in0.0 mm 0.00 in0.0 mm
05:00 AM 54.0°F12.2°C 46.2°F7.9°C 75% 6.0 mph NW9.7 kmh NW 11.0 mph17.7 kmh 30.27 in1025.1 mb 0.00 in0.0 mm 0.00 in0.0 mm 0.00 in0.0 mm
04:45 AM 54.1°F12.3°C 47.1°F8.4°C 77% 6.0 mph NW9.7 kmh NW 10.0 mph16.1 kmh 30.27 in1025.1 mb 0.00 in0.0 mm 0.00 in0.0 mm 0.00 in0.0 mm
04:30 AM 54.0°F12.2°C 46.2°F7.9°C 75% 5.0 mph NW8.0 kmh NW 13.0 mph20.9 kmh 30.27 in1025.1 mb 0.00 in0.0 mm 0.00 in0.0 mm 0.00 in0.0 mm
04:15 AM 54.0°F12.2°C 46.2°F7.9°C 75% 6.0 mph NW9.7 kmh NW 11.0 mph17.7 kmh 30.27 in1025.1 mb 0.00 in0.0 mm 0.00 in0.0 mm 0.00 in0.0 mm
04:00 AM 53.8°F12.1°C 45.3°F7.4°C 73% 5.0 mph NW8.0 kmh NW 11.0 mph17.7 kmh 30.28 in1025.4 mb 0.00 in0.0 mm 0.00 in0.0 mm 0.00 in0.0 mm
03:45 AM 53.6°F12.0°C 45.2°F7.3°C 73% 7.0 mph NW11.3 kmh NW 13.0 mph20.9 kmh 30.29 in1025.7 mb 0.00 in0.0 mm 0.00 in0.0 mm 0.00 in0.0 mm
03:30 AM 53.6°F12.0°C 45.5°F7.5°C 74% 6.0 mph NW9.7 kmh NW 15.0 mph24.1 kmh 30.29 in1025.7 mb 0.00 in0.0 mm 0.00 in0.0 mm 0.00 in0.0 mm
03:15 AM 53.8°F12.1°C 46.4°F8.0°C 76% 8.0 mph NW12.9 kmh NW 17.0 mph27.4 kmh 30.30 in1026.1 mb 0.00 in0.0 mm 0.00 in0.0 mm 0.00 in0.0 mm
03:00 AM 53.8°F12.1°C 47.1°F8.4°C 78% 6.0 mph NW9.7 kmh NW 19.0 mph30.6 kmh 30.30 in1026.1 mb 0.00 in0.0 mm 0.00 in0.0 mm 0.00 in0.0 mm
02:45 AM 53.8°F12.1°C 47.4°F8.6°C 79% 8.0 mph NW12.9 kmh NW 15.0 mph24.1 kmh 30.30 in1026.1 mb 0.00 in0.0 mm 0.00 in0.0 mm 0.00 in0.0 mm
02:30 AM 53.6°F12.0°C 47.6°F8.7°C 80% 6.0 mph NW9.7 kmh NW 13.0 mph20.9 kmh 30.30 in1026.1 mb 0.00 in0.0 mm 0.00 in0.0 mm 0.00 in0.0 mm
02:15 AM 53.4°F11.9°C 47.1°F8.4°C 79% 5.0 mph NW8.0 kmh NW 17.0 mph27.4 kmh 30.31 in1026.4 mb 0.00 in0.0 mm 0.00 in0.0 mm 0.00 in0.0 mm
02:00 AM 53.4°F11.9°C 47.1°F8.4°C 79% 7.0 mph NW11.3 kmh NW 13.0 mph20.9 kmh 30.31 in1026.4 mb 0.00 in0.0 mm 0.00 in0.0 mm 0.00 in0.0 mm
01:45 AM 53.4°F11.9°C 46.7°F8.2°C 78% 8.0 mph NW12.9 kmh NW 14.0 mph22.5 kmh 30.31 in1026.4 mb 0.00 in0.0 mm 0.00 in0.0 mm 0.00 in0.0 mm
01:30 AM 53.2°F11.8°C 46.9°F8.3°C 79% 6.0 mph NW9.7 kmh NW 14.0 mph22.5 kmh 30.32 in1026.8 mb 0.00 in0.0 mm 0.00 in0.0 mm 0.00 in0.0 mm
01:15 AM 53.2°F11.8°C 46.9°F8.3°C 79% 7.0 mph NW11.3 kmh NW 12.0 mph19.3 kmh 30.32 in1026.8 mb 0.00 in0.0 mm 0.00 in0.0 mm 0.00 in0.0 mm
01:00 AM 53.2°F11.8°C 46.9°F8.3°C 79% 7.0 mph NW11.3 kmh NW 12.0 mph19.3 kmh 30.32 in1026.8 mb 0.00 in0.0 mm 0.00 in0.0 mm 0.00 in0.0 mm
12:45 AM 53.2°F11.8°C 46.6°F8.1°C 78% 7.0 mph NW11.3 kmh NW 17.0 mph27.4 kmh 30.33 in1027.1 mb 0.00 in0.0 mm 0.00 in0.0 mm 0.00 in0.0 mm
12:30 AM 53.4°F11.9°C 47.1°F8.4°C 79% 7.0 mph NW11.3 kmh NW 14.0 mph22.5 kmh 30.33 in1027.1 mb 0.00 in0.0 mm 0.00 in0.0 mm 0.00 in0.0 mm
12:15 AM 53.4°F11.9°C 47.1°F8.4°C 79% 6.0 mph NW9.7 kmh NW 15.0 mph24.1 kmh 30.33 in1027.1 mb 0.00 in0.0 mm 0.00 in0.0 mm 0.00 in0.0 mm
12:00 AM 53.4°F11.9°C 47.4°F8.6°C 80% 7.0 mph NW11.3 kmh NW 16.0 mph25.7 kmh 30.33 in1027.1 mb 0.00 in0.0 mm 0.00 in0.0 mm 0.00 in0.0 mm